sensor_id;sensor_type;location;lat;lon;timestamp;pressure;altitude;pressure_sealevel;temperature;humidity
65614;BME280;52283;49.292;10.572;2023-11-19T00:00:35;96383.28;;;5.25;100.00
65614;BME280;52283;49.292;10.572;2023-11-19T00:03:02;96370.13;;;5.34;100.00
65614;BME280;52283;49.292;10.572;2023-11-19T00:05:29;96360.19;;;5.18;100.00
65614;BME280;52283;49.292;10.572;2023-11-19T00:07:56;96359.97;;;5.07;100.00
65614;BME280;52283;49.292;10.572;2023-11-19T00:10:23;96347.25;;;4.92;100.00
65614;BME280;52283;49.292;10.572;2023-11-19T00:12:50;96342.75;;;5.03;100.00
65614;BME280;52283;49.292;10.572;2023-11-19T00:15:17;96338.56;;;5.08;100.00
65614;BME280;52283;49.292;10.572;2023-11-19T00:17:45;96339.03;;;5.06;100.00
65614;BME280;52283;49.292;10.572;2023-11-19T00:20:13;96349.09;;;5.28;100.00
65614;BME280;52283;49.292;10.572;2023-11-19T00:22:40;96342.31;;;5.29;100.00
65614;BME280;52283;49.292;10.572;2023-11-19T00:25:08;96335.03;;;5.07;100.00
65614;BME280;52283;49.292;10.572;2023-11-19T00:27:34;96330.25;;;5.08;100.00
65614;BME280;52283;49.292;10.572;2023-11-19T00:30:02;96323.91;;;5.16;100.00
65614;BME280;52283;49.292;10.572;2023-11-19T00:32:30;96313.88;;;5.19;100.00
65614;BME280;52283;49.292;10.572;2023-11-19T00:34:57;96308.94;;;5.47;100.00
65614;BME280;52283;49.292;10.572;2023-11-19T00:37:33;96310.94;;;5.23;100.00
65614;BME280;52283;49.292;10.572;2023-11-19T00:40:00;96308.97;;;5.38;100.00
65614;BME280;52283;49.292;10.572;2023-11-19T00:42:31;96309.63;;;5.33;100.00
65614;BME280;52283;49.292;10.572;2023-11-19T00:44:58;96304.63;;;5.46;100.00
65614;BME280;52283;49.292;10.572;2023-11-19T00:47:26;96307.75;;;5.63;100.00
65614;BME280;52283;49.292;10.572;2023-11-19T00:49:53;96302.41;;;5.74;100.00
65614;BME280;52283;49.292;10.572;2023-11-19T00:52:23;96306.63;;;5.84;100.00
65614;BME280;52283;49.292;10.572;2023-11-19T00:54:49;96303.75;;;5.78;100.00
65614;BME280;52283;49.292;10.572;2023-11-19T00:57:16;96305.06;;;5.68;100.00
65614;BME280;52283;49.292;10.572;2023-11-19T00:59:43;96300.75;;;5.91;100.00
65614;BME280;52283;49.292;10.572;2023-11-19T01:02:10;96299.38;;;5.87;100.00
65614;BME280;52283;49.292;10.572;2023-11-19T01:04:39;96300.06;;;5.96;100.00
65614;BME280;52283;49.292;10.572;2023-11-19T01:07:06;96292.03;;;5.60;100.00
65614;BME280;52283;49.292;10.572;2023-11-19T01:09:37;96300.78;;;5.82;100.00
65614;BME280;52283;49.292;10.572;2023-11-19T01:12:06;96300.78;;;5.82;100.00
65614;BME280;52283;49.292;10.572;2023-11-19T01:14:32;96304.44;;;5.88;100.00
65614;BME280;52283;49.292;10.572;2023-11-19T01:17:00;96312.78;;;6.03;100.00
65614;BME280;52283;49.292;10.572;2023-11-19T01:19:27;96298.59;;;5.86;100.00
65614;BME280;52283;49.292;10.572;2023-11-19T01:21:54;96302.09;;;6.10;100.00
65614;BME280;52283;49.292;10.572;2023-11-19T01:24:21;96297.88;;;6.15;100.00
65614;BME280;52283;49.292;10.572;2023-11-19T01:26:47;96294.63;;;6.17;100.00
65614;BME280;52283;49.292;10.572;2023-11-19T01:29:14;96292.50;;;5.97;100.00
65614;BME280;52283;49.292;10.572;2023-11-19T01:31:41;96293.56;;;5.99;100.00
65614;BME280;52283;49.292;10.572;2023-11-19T01:34:09;96275.50;;;6.04;100.00
65614;BME280;52283;49.292;10.572;2023-11-19T01:36:36;96275.59;;;6.09;100.00
65614;BME280;52283;49.292;10.572;2023-11-19T01:39:04;96274.72;;;6.18;100.00
65614;BME280;52283;49.292;10.572;2023-11-19T01:41:34;96266.41;;;6.18;100.00
65614;BME280;52283;49.292;10.572;2023-11-19T01:44:00;96260.56;;;6.16;100.00
65614;BME280;52283;49.292;10.572;2023-11-19T01:46:27;96248.31;;;6.23;100.00
65614;BME280;52283;49.292;10.572;2023-11-19T01:48:54;96237.88;;;5.88;100.00
65614;BME280;52283;49.292;10.572;2023-11-19T01:51:23;96247.38;;;5.96;100.00
65614;BME280;52283;49.292;10.572;2023-11-19T01:53:50;96248.22;;;6.17;100.00
65614;BME280;52283;49.292;10.572;2023-11-19T01:56:17;96238.56;;;6.27;100.00
65614;BME280;52283;49.292;10.572;2023-11-19T01:58:44;96242.19;;;6.33;100.00
65614;BME280;52283;49.292;10.572;2023-11-19T02:01:12;96249.84;;;6.38;100.00
65614;BME280;52283;49.292;10.572;2023-11-19T02:03:39;96254.59;;;6.53;100.00
65614;BME280;52283;49.292;10.572;2023-11-19T02:06:06;96254.81;;;6.49;100.00
65614;BME280;52283;49.292;10.572;2023-11-19T02:08:36;96251.66;;;6.41;100.00
65614;BME280;52283;49.292;10.572;2023-11-19T02:11:04;96254.06;;;6.34;100.00
65614;BME280;52283;49.292;10.572;2023-11-19T02:13:32;96249.81;;;6.53;100.00
65614;BME280;52283;49.292;10.572;2023-11-19T02:16:01;96234.22;;;6.56;100.00
65614;BME280;52283;49.292;10.572;2023-11-19T02:18:28;96232.75;;;6.60;100.00
65614;BME280;52283;49.292;10.572;2023-11-19T02:20:55;96237.75;;;6.56;100.00
65614;BME280;52283;49.292;10.572;2023-11-19T02:23:22;96234.28;;;6.61;100.00
65614;BME280;52283;49.292;10.572;2023-11-19T02:25:59;96226.22;;;6.63;100.00
65614;BME280;52283;49.292;10.572;2023-11-19T02:28:29;96231.22;;;6.59;100.00
65614;BME280;52283;49.292;10.572;2023-11-19T02:30:56;96225.84;;;6.70;100.00
65614;BME280;52283;49.292;10.572;2023-11-19T02:33:23;96225.09;;;6.70;100.00
65614;BME280;52283;49.292;10.572;2023-11-19T02:35:50;96222.25;;;6.85;100.00
65614;BME280;52283;49.292;10.572;2023-11-19T02:38:17;96210.84;;;6.83;100.00
65614;BME280;52283;49.292;10.572;2023-11-19T02:40:43;96207.09;;;6.86;100.00
65614;BME280;52283;49.292;10.572;2023-11-19T02:43:10;96206.22;;;6.94;100.00
65614;BME280;52283;49.292;10.572;2023-11-19T02:45:37;96205.69;;;6.90;100.00
65614;BME280;52283;49.292;10.572;2023-11-19T02:48:04;96203.16;;;6.92;100.00
65614;BME280;52283;49.292;10.572;2023-11-19T02:50:32;96207.06;;;7.00;100.00
65614;BME280;52283;49.292;10.572;2023-11-19T02:52:58;96199.63;;;7.12;100.00
65614;BME280;52283;49.292;10.572;2023-11-19T02:55:26;96199.41;;;7.16;100.00
65614;BME280;52283;49.292;10.572;2023-11-19T02:57:55;96196.69;;;7.21;100.00
65614;BME280;52283;49.292;10.572;2023-11-19T03:00:24;96203.84;;;7.28;100.00
65614;BME280;52283;49.292;10.572;2023-11-19T03:02:59;96214.13;;;7.42;100.00
65614;BME280;52283;49.292;10.572;2023-11-19T03:05:30;96214.41;;;7.44;100.00
65614;BME280;52283;49.292;10.572;2023-11-19T03:07:57;96220.59;;;7.54;100.00
65614;BME280;52283;49.292;10.572;2023-11-19T03:10:23;96211.22;;;7.51;100.00
65614;BME280;52283;49.292;10.572;2023-11-19T03:12:51;96216.81;;;7.57;100.00
65614;BME280;52283;49.292;10.572;2023-11-19T03:15:17;96201.72;;;7.63;100.00
65614;BME280;52283;49.292;10.572;2023-11-19T03:17:45;96214.59;;;7.61;100.00
65614;BME280;52283;49.292;10.572;2023-11-19T03:20:13;96197.25;;;7.72;100.00
65614;BME280;52283;49.292;10.572;2023-11-19T03:22:42;96192.06;;;7.85;100.00
65614;BME280;52283;49.292;10.572;2023-11-19T03:25:09;96190.53;;;7.84;100.00
65614;BME280;52283;49.292;10.572;2023-11-19T03:27:36;96183.06;;;7.95;100.00
65614;BME280;52283;49.292;10.572;2023-11-19T03:30:04;96171.72;;;7.99;100.00
65614;BME280;52283;49.292;10.572;2023-11-19T03:32:31;96153.75;;;8.00;100.00
65614;BME280;52283;49.292;10.572;2023-11-19T03:34:58;96143.44;;;8.06;100.00
65614;BME280;52283;49.292;10.572;2023-11-19T03:37:26;96123.72;;;8.10;100.00
65614;BME280;52283;49.292;10.572;2023-11-19T03:39:53;96130.09;;;8.16;100.00
65614;BME280;52283;49.292;10.572;2023-11-19T03:42:20;96126.56;;;8.15;100.00
65614;BME280;52283;49.292;10.572;2023-11-19T03:44:47;96121.06;;;8.26;100.00
65614;BME280;52283;49.292;10.572;2023-11-19T03:47:14;96111.19;;;8.25;100.00
65614;BME280;52283;49.292;10.572;2023-11-19T03:49:41;96101.59;;;8.32;100.00
65614;BME280;52283;49.292;10.572;2023-11-19T03:52:07;96093.72;;;8.25;100.00
65614;BME280;52283;49.292;10.572;2023-11-19T03:54:36;96094.75;;;8.27;100.00
65614;BME280;52283;49.292;10.572;2023-11-19T03:57:02;96092.47;;;8.32;100.00
65614;BME280;52283;49.292;10.572;2023-11-19T03:59:29;96110.03;;;8.38;100.00
65614;BME280;52283;49.292;10.572;2023-11-19T04:01:55;96104.72;;;8.40;100.00
65614;BME280;52283;49.292;10.572;2023-11-19T04:04:22;96116.88;;;8.42;100.00
65614;BME280;52283;49.292;10.572;2023-11-19T04:06:48;96127.78;;;8.46;100.00
65614;BME280;52283;49.292;10.572;2023-11-19T04:09:15;96123.22;;;8.43;100.00
65614;BME280;52283;49.292;10.572;2023-11-19T04:11:42;96119.19;;;8.49;100.00
65614;BME280;52283;49.292;10.572;2023-11-19T04:14:09;96124.25;;;8.51;100.00
65614;BME280;52283;49.292;10.572;2023-11-19T04:16:36;96128.56;;;8.52;100.00
65614;BME280;52283;49.292;10.572;2023-11-19T04:19:02;96120.97;;;8.52;100.00
65614;BME280;52283;49.292;10.572;2023-11-19T04:21:29;96128.66;;;8.63;100.00
65614;BME280;52283;49.292;10.572;2023-11-19T04:23:55;96122.31;;;8.63;100.00
65614;BME280;52283;49.292;10.572;2023-11-19T04:26:22;96129.66;;;8.60;100.00
65614;BME280;52283;49.292;10.572;2023-11-19T04:28:50;96144.88;;;8.70;100.00
65614;BME280;52283;49.292;10.572;2023-11-19T04:31:16;96135.97;;;8.61;100.00
65614;BME280;52283;49.292;10.572;2023-11-19T04:33:45;96124.09;;;8.66;100.00
65614;BME280;52283;49.292;10.572;2023-11-19T04:36:12;96130.19;;;8.70;100.00
65614;BME280;52283;49.292;10.572;2023-11-19T04:38:39;96121.34;;;8.71;100.00
65614;BME280;52283;49.292;10.572;2023-11-19T04:41:06;96124.38;;;8.73;100.00
65614;BME280;52283;49.292;10.572;2023-11-19T04:43:33;96117.34;;;8.78;100.00
65614;BME280;52283;49.292;10.572;2023-11-19T04:46:03;96121.66;;;8.84;100.00
65614;BME280;52283;49.292;10.572;2023-11-19T04:48:29;96116.31;;;8.81;100.00
65614;BME280;52283;49.292;10.572;2023-11-19T04:50:56;96120.66;;;8.88;100.00
65614;BME280;52283;49.292;10.572;2023-11-19T04:53:23;96116.84;;;8.85;100.00
65614;BME280;52283;49.292;10.572;2023-11-19T04:55:49;96130.25;;;8.81;100.00
65614;BME280;52283;49.292;10.572;2023-11-19T04:58:16;96135.59;;;8.84;100.00
65614;BME280;52283;49.292;10.572;2023-11-19T05:00:42;96124.94;;;8.83;100.00
65614;BME280;52283;49.292;10.572;2023-11-19T05:03:10;96121.66;;;8.84;100.00
65614;BME280;52283;49.292;10.572;2023-11-19T05:05:36;96122.41;;;8.85;100.00
65614;BME280;52283;49.292;10.572;2023-11-19T05:08:03;96127.75;;;8.89;100.00
65614;BME280;52283;49.292;10.572;2023-11-19T05:10:30;96122.19;;;8.89;100.00
65614;BME280;52283;49.292;10.572;2023-11-19T05:12:57;96125.72;;;8.89;100.00
65614;BME280;52283;49.292;10.572;2023-11-19T05:15:23;96121.44;;;8.94;100.00
65614;BME280;52283;49.292;10.572;2023-11-19T05:17:50;96117.94;;;9.04;100.00
65614;BME280;52283;49.292;10.572;2023-11-19T05:20:18;96121.22;;;8.97;100.00
65614;BME280;52283;49.292;10.572;2023-11-19T05:22:44;96119.72;;;9.07;100.00
65614;BME280;52283;49.292;10.572;2023-11-19T05:25:11;96116.41;;;8.98;100.00
65614;BME280;52283;49.292;10.572;2023-11-19T05:27:38;96102.22;;;9.07;100.00
65614;BME280;52283;49.292;10.572;2023-11-19T05:30:05;96099.19;;;9.05;100.00
65614;BME280;52283;49.292;10.572;2023-11-19T05:32:33;96115.16;;;9.10;100.00
65614;BME280;52283;49.292;10.572;2023-11-19T05:34:59;96104.50;;;9.08;100.00
65614;BME280;52283;49.292;10.572;2023-11-19T05:37:28;96110.59;;;9.12;100.00
65614;BME280;52283;49.292;10.572;2023-11-19T05:39:54;96102.50;;;9.14;100.00
65614;BME280;52283;49.292;10.572;2023-11-19T05:42:21;96098.94;;;9.14;100.00
65614;BME280;52283;49.292;10.572;2023-11-19T05:44:47;96101.78;;;9.20;100.00
65614;BME280;52283;49.292;10.572;2023-11-19T05:47:13;96112.44;;;9.27;100.00
65614;BME280;52283;49.292;10.572;2023-11-19T05:49:40;96107.88;;;9.29;100.00
65614;BME280;52283;49.292;10.572;2023-11-19T05:52:06;96103.03;;;9.24;100.00
65614;BME280;52283;49.292;10.572;2023-11-19T05:54:36;96104.81;;;9.22;100.00
65614;BME280;52283;49.292;10.572;2023-11-19T05:57:03;96117.00;;;9.24;100.00
65614;BME280;52283;49.292;10.572;2023-11-19T05:59:30;96107.09;;;9.29;100.00
65614;BME280;52283;49.292;10.572;2023-11-19T06:01:58;96096.97;;;9.26;100.00
65614;BME280;52283;49.292;10.572;2023-11-19T06:04:25;96104.84;;;9.33;100.00
65614;BME280;52283;49.292;10.572;2023-11-19T06:06:51;96102.81;;;9.33;100.00
65614;BME280;52283;49.292;10.572;2023-11-19T06:09:19;96108.13;;;9.31;100.00
65614;BME280;52283;49.292;10.572;2023-11-19T06:11:47;96113.75;;;9.42;100.00
65614;BME280;52283;49.292;10.572;2023-11-19T06:14:14;96110.69;;;9.46;100.00
65614;BME280;52283;49.292;10.572;2023-11-19T06:16:40;96102.06;;;9.38;100.00
65614;BME280;52283;49.292;10.572;2023-11-19T06:19:07;96111.72;;;9.37;100.00
65614;BME280;52283;49.292;10.572;2023-11-19T06:21:36;96106.13;;;9.43;100.00
65614;BME280;52283;49.292;10.572;2023-11-19T06:24:03;96106.91;;;9.43;100.00
65614;BME280;52283;49.292;10.572;2023-11-19T06:26:29;96108.94;;;9.48;100.00
65614;BME280;52283;49.292;10.572;2023-11-19T06:28:57;96107.16;;;9.51;100.00
65614;BME280;52283;49.292;10.572;2023-11-19T06:31:23;96105.63;;;9.56;100.00
65614;BME280;52283;49.292;10.572;2023-11-19T06:33:50;96106.91;;;9.55;100.00
65614;BME280;52283;49.292;10.572;2023-11-19T06:36:16;96105.88;;;9.52;100.00
65614;BME280;52283;49.292;10.572;2023-11-19T06:38:45;96101.31;;;9.55;100.00
65614;BME280;52283;49.292;10.572;2023-11-19T06:41:11;96088.66;;;9.59;100.00
65614;BME280;52283;49.292;10.572;2023-11-19T06:43:38;96099.56;;;9.63;100.00
65614;BME280;52283;49.292;10.572;2023-11-19T06:46:06;96104.38;;;9.62;100.00
65614;BME280;52283;49.292;10.572;2023-11-19T06:48:40;96108.19;;;9.65;100.00
65614;BME280;52283;49.292;10.572;2023-11-19T06:51:09;96126.19;;;9.64;100.00
65614;BME280;52283;49.292;10.572;2023-11-19T06:53:35;96131.78;;;9.64;100.00
65614;BME280;52283;49.292;10.572;2023-11-19T06:56:02;96137.09;;;9.67;100.00
65614;BME280;52283;49.292;10.572;2023-11-19T06:58:30;96131.53;;;9.67;100.00
65614;BME280;52283;49.292;10.572;2023-11-19T07:00:57;96130.50;;;9.70;100.00
65614;BME280;52283;49.292;10.572;2023-11-19T07:03:25;96141.16;;;9.72;100.00
65614;BME280;52283;49.292;10.572;2023-11-19T07:05:51;96133.31;;;9.76;100.00
65614;BME280;52283;49.292;10.572;2023-11-19T07:08:18;96134.31;;;9.67;100.00
65614;BME280;52283;49.292;10.572;2023-11-19T07:10:44;96127.97;;;9.78;100.00
65614;BME280;52283;49.292;10.572;2023-11-19T07:13:12;96127.97;;;9.78;100.00
65614;BME280;52283;49.292;10.572;2023-11-19T07:15:39;96125.97;;;9.90;100.00
65614;BME280;52283;49.292;10.572;2023-11-19T07:18:05;96126.72;;;9.85;100.00
65614;BME280;52283;49.292;10.572;2023-11-19T07:20:33;96130.78;;;9.95;100.00
65614;BME280;52283;49.292;10.572;2023-11-19T07:22:59;96135.34;;;9.92;100.00
65614;BME280;52283;49.292;10.572;2023-11-19T07:25:26;96133.56;;;9.95;100.00
65614;BME280;52283;49.292;10.572;2023-11-19T07:27:52;96143.22;;;9.99;100.00
65614;BME280;52283;49.292;10.572;2023-11-19T07:30:19;96139.19;;;10.00;100.00
65614;BME280;52283;49.292;10.572;2023-11-19T07:32:45;96145.53;;;10.01;100.00
65614;BME280;52283;49.292;10.572;2023-11-19T07:35:12;96138.16;;;10.03;100.00
65614;BME280;52283;49.292;10.572;2023-11-19T07:37:39;96132.56;;;10.09;100.00
65614;BME280;52283;49.292;10.572;2023-11-19T07:40:07;96137.13;;;10.12;100.00
65614;BME280;52283;49.292;10.572;2023-11-19T07:42:34;96148.03;;;10.10;100.00
65614;BME280;52283;49.292;10.572;2023-11-19T07:45:00;96135.84;;;10.13;100.00
65614;BME280;52283;49.292;10.572;2023-11-19T07:47:27;96147.56;;;10.23;100.00
65614;BME280;52283;49.292;10.572;2023-11-19T07:49:54;96144.22;;;10.19;100.00
65614;BME280;52283;49.292;10.572;2023-11-19T07:52:20;96157.97;;;10.28;100.00
65614;BME280;52283;49.292;10.572;2023-11-19T07:54:48;96146.53;;;10.31;100.00
65614;BME280;52283;49.292;10.572;2023-11-19T07:57:15;96141.72;;;10.26;100.00
65614;BME280;52283;49.292;10.572;2023-11-19T07:59:41;96151.84;;;10.41;100.00
65614;BME280;52283;49.292;10.572;2023-11-19T08:02:07;96158.47;;;10.43;100.00
65614;BME280;52283;49.292;10.572;2023-11-19T08:04:34;96153.66;;;10.44;100.00
65614;BME280;52283;49.292;10.572;2023-11-19T08:07:00;96153.63;;;10.38;100.00
65614;BME280;52283;49.292;10.572;2023-11-19T08:09:27;96146.78;;;10.45;100.00
65614;BME280;52283;49.292;10.572;2023-11-19T08:11:55;96144.75;;;10.51;100.00
65614;BME280;52283;49.292;10.572;2023-11-19T08:14:21;96150.31;;;10.51;100.00
65614;BME280;52283;49.292;10.572;2023-11-19T08:16:48;96145.72;;;10.59;100.00
65614;BME280;52283;49.292;10.572;2023-11-19T08:19:14;96158.69;;;10.67;100.00
65614;BME280;52283;49.292;10.572;2023-11-19T08:21:41;96139.38;;;10.58;100.00
65614;BME280;52283;49.292;10.572;2023-11-19T08:24:07;96144.72;;;10.67;100.00
65614;BME280;52283;49.292;10.572;2023-11-19T08:26:34;96136.06;;;10.71;100.00
65614;BME280;52283;49.292;10.572;2023-11-19T08:29:02;96140.88;;;10.76;100.00
65614;BME280;52283;49.292;10.572;2023-11-19T08:31:28;96160.44;;;10.76;100.00
65614;BME280;52283;49.292;10.572;2023-11-19T08:33:55;96147.47;;;10.79;100.00
65614;BME280;52283;49.292;10.572;2023-11-19T08:36:21;96148.97;;;10.80;100.00
65614;BME280;52283;49.292;10.572;2023-11-19T08:38:48;96146.72;;;10.84;100.00
65614;BME280;52283;49.292;10.572;2023-11-19T08:41:15;96149.72;;;10.91;100.00
65614;BME280;52283;49.292;10.572;2023-11-19T08:43:43;96156.81;;;10.98;100.00
65614;BME280;52283;49.292;10.572;2023-11-19T08:46:11;96148.97;;;10.91;100.00
65614;BME280;52283;49.292;10.572;2023-11-19T08:48:37;96152.50;;;10.97;100.00
65614;BME280;52283;49.292;10.572;2023-11-19T08:51:04;96163.91;;;11.10;100.00
65614;BME280;52283;49.292;10.572;2023-11-19T08:53:31;96152.72;;;11.10;100.00
65614;BME280;52283;49.292;10.572;2023-11-19T08:55:57;96158.25;;;11.21;100.00
65614;BME280;52283;49.292;10.572;2023-11-19T08:58:23;96163.00;;;11.38;100.00
65614;BME280;52283;49.292;10.572;2023-11-19T09:00:50;96166.09;;;11.34;100.00
65614;BME280;52283;49.292;10.572;2023-11-19T09:03:18;96177.25;;;11.40;100.00
65614;BME280;52283;49.292;10.572;2023-11-19T09:05:45;96167.31;;;11.39;100.00
65614;BME280;52283;49.292;10.572;2023-11-19T09:08:11;96168.56;;;11.43;100.00
65614;BME280;52283;49.292;10.572;2023-11-19T09:10:38;96166.81;;;11.46;100.00
65614;BME280;52283;49.292;10.572;2023-11-19T09:13:04;96169.56;;;11.51;100.00
65614;BME280;52283;49.292;10.572;2023-11-19T09:15:31;96179.00;;;11.43;100.00
65614;BME280;52283;49.292;10.572;2023-11-19T09:17:57;96177.97;;;11.51;100.00
65614;BME280;52283;49.292;10.572;2023-11-19T09:20:25;96185.84;;;11.53;100.00
65614;BME280;52283;49.292;10.572;2023-11-19T09:22:51;96172.88;;;11.50;100.00
65614;BME280;52283;49.292;10.572;2023-11-19T09:25:19;96180.44;;;11.60;100.00
65614;BME280;52283;49.292;10.572;2023-11-19T09:27:46;96179.25;;;11.45;100.00
65614;BME280;52283;49.292;10.572;2023-11-19T09:30:12;96180.03;;;11.40;100.00
65614;BME280;52283;49.292;10.572;2023-11-19T09:32:39;96182.13;;;11.22;100.00
65614;BME280;52283;49.292;10.572;2023-11-19T09:35:06;96181.69;;;11.13;100.00
65614;BME280;52283;49.292;10.572;2023-11-19T09:37:33;96194.41;;;11.03;100.00
65614;BME280;52283;49.292;10.572;2023-11-19T09:39:59;96193.13;;;11.09;100.00
65614;BME280;52283;49.292;10.572;2023-11-19T09:42:26;96190.63;;;11.06;100.00
65614;BME280;52283;49.292;10.572;2023-11-19T09:44:54;96190.59;;;11.00;100.00
65614;BME280;52283;49.292;10.572;2023-11-19T09:47:23;96177.38;;;11.00;100.00
65614;BME280;52283;49.292;10.572;2023-11-19T09:49:50;96189.88;;;10.94;100.00
65614;BME280;52283;49.292;10.572;2023-11-19T09:52:17;96197.75;;;10.95;100.00
65614;BME280;52283;49.292;10.572;2023-11-19T09:54:45;96192.44;;;10.81;100.00
65614;BME280;52283;49.292;10.572;2023-11-19T09:57:14;96166.50;;;10.80;100.00
65614;BME280;52283;49.292;10.572;2023-11-19T09:59:43;96160.63;;;11.06;100.00
65614;BME280;52283;49.292;10.572;2023-11-19T10:02:11;96166.94;;;11.12;100.00
65614;BME280;52283;49.292;10.572;2023-11-19T10:04:38;96165.88;;;11.26;100.00
65614;BME280;52283;49.292;10.572;2023-11-19T10:07:06;96160.72;;;11.36;100.00
65614;BME280;52283;49.292;10.572;2023-11-19T10:09:32;96158.16;;;11.38;100.00
65614;BME280;52283;49.292;10.572;2023-11-19T10:12:00;96159.44;;;11.37;100.00
65614;BME280;52283;49.292;10.572;2023-11-19T10:14:28;96158.06;;;11.60;100.00
65614;BME280;52283;49.292;10.572;2023-11-19T10:16:57;96169.00;;;11.58;100.00
65614;BME280;52283;49.292;10.572;2023-11-19T10:19:24;96168.72;;;11.68;100.00
65614;BME280;52283;49.292;10.572;2023-11-19T10:21:51;96164.88;;;11.71;100.00
65614;BME280;52283;49.292;10.572;2023-11-19T10:24:31;96160.75;;;11.83;100.00
65614;BME280;52283;49.292;10.572;2023-11-19T10:26:59;96154.63;;;11.84;100.00
65614;BME280;52283;49.292;10.572;2023-11-19T10:29:26;96163.97;;;11.98;100.00
65614;BME280;52283;49.292;10.572;2023-11-19T10:31:57;96161.44;;;11.95;100.00
65614;BME280;52283;49.292;10.572;2023-11-19T10:34:25;96167.56;;;11.93;100.00
65614;BME280;52283;49.292;10.572;2023-11-19T10:36:52;96169.38;;;11.90;100.00
65614;BME280;52283;49.292;10.572;2023-11-19T10:39:18;96156.66;;;11.89;100.00
65614;BME280;52283;49.292;10.572;2023-11-19T10:41:46;96155.91;;;11.78;100.00
65614;BME280;52283;49.292;10.572;2023-11-19T10:44:31;96161.78;;;11.80;100.00
65614;BME280;52283;49.292;10.572;2023-11-19T10:46:59;96162.31;;;11.78;100.00
65614;BME280;52283;49.292;10.572;2023-11-19T10:49:25;96163.53;;;11.88;100.00
65614;BME280;52283;49.292;10.572;2023-11-19T10:51:53;96170.06;;;11.97;100.00
65614;BME280;52283;49.292;10.572;2023-11-19T10:54:22;96161.25;;;11.87;100.00
65614;BME280;52283;49.292;10.572;2023-11-19T10:56:54;96161.72;;;11.91;100.00
65614;BME280;52283;49.292;10.572;2023-11-19T10:59:23;96165.28;;;11.92;100.00
65614;BME280;52283;49.292;10.572;2023-11-19T11:01:53;96158.69;;;11.89;100.00
65614;BME280;52283;49.292;10.572;2023-11-19T11:04:23;96150.81;;;11.87;100.00
65614;BME280;52283;49.292;10.572;2023-11-19T11:06:51;96148.91;;;12.01;100.00
65614;BME280;52283;49.292;10.572;2023-11-19T11:09:18;96143.78;;;12.05;100.00
65614;BME280;52283;49.292;10.572;2023-11-19T11:11:47;96152.00;;;11.98;100.00
65614;BME280;52283;49.292;10.572;2023-11-19T11:14:13;96151.94;;;12.09;100.00
65614;BME280;52283;49.292;10.572;2023-11-19T11:16:43;96157.44;;;12.20;100.00
65614;BME280;52283;49.292;10.572;2023-11-19T11:19:10;96146.41;;;12.28;100.00
65614;BME280;52283;49.292;10.572;2023-11-19T11:21:38;96153.63;;;12.17;100.00
65614;BME280;52283;49.292;10.572;2023-11-19T11:24:20;96147.69;;;12.27;100.00
65614;BME280;52283;49.292;10.572;2023-11-19T11:30:01;96142.53;;;12.36;100.00
65614;BME280;52283;49.292;10.572;2023-11-19T11:32:38;96148.13;;;12.36;100.00
65614;BME280;52283;49.292;10.572;2023-11-19T11:35:29;96161.16;;;12.58;100.00
65614;BME280;52283;49.292;10.572;2023-11-19T11:38:01;96155.97;;;12.68;100.00
65614;BME280;52283;49.292;10.572;2023-11-19T11:40:29;96133.28;;;12.71;100.00
65614;BME280;52283;49.292;10.572;2023-11-19T11:42:56;96152.06;;;12.76;100.00
65614;BME280;52283;49.292;10.572;2023-11-19T11:45:35;96149.03;;;12.74;100.00
65614;BME280;52283;49.292;10.572;2023-11-19T11:48:11;96163.81;;;12.75;100.00
65614;BME280;52283;49.292;10.572;2023-11-19T11:50:56;96145.72;;;12.76;100.00
65614;BME280;52283;49.292;10.572;2023-11-19T11:53:23;96141.56;;;12.58;100.00
65614;BME280;52283;49.292;10.572;2023-11-19T11:55:55;96140.03;;;12.57;100.00
65614;BME280;52283;49.292;10.572;2023-11-19T11:58:29;96148.44;;;12.57;100.00
65614;BME280;52283;49.292;10.572;2023-11-19T12:00:57;96141.25;;;12.62;100.00
65614;BME280;52283;49.292;10.572;2023-11-19T12:03:27;96138.59;;;12.75;100.00
65614;BME280;52283;49.292;10.572;2023-11-19T12:05:54;96137.47;;;12.83;100.00
65614;BME280;52283;49.292;10.572;2023-11-19T12:08:25;96176.13;;;12.91;100.00
65614;BME280;52283;49.292;10.572;2023-11-19T12:10:54;96143.53;;;12.88;100.00
65614;BME280;52283;49.292;10.572;2023-11-19T12:13:23;96147.91;;;12.83;100.00
65614;BME280;52283;49.292;10.572;2023-11-19T12:16:08;96132.31;;;12.88;100.00
65614;BME280;52283;49.292;10.572;2023-11-19T12:18:38;96131.91;;;12.78;100.00
65614;BME280;52283;49.292;10.572;2023-11-19T12:21:06;96126.38;;;12.72;100.00
65614;BME280;52283;49.292;10.572;2023-11-19T12:23:34;96134.19;;;12.79;100.00
65614;BME280;52283;49.292;10.572;2023-11-19T12:26:01;96127.41;;;12.69;100.00
65614;BME280;52283;49.292;10.572;2023-11-19T12:28:29;96092.16;;;12.55;100.00
65614;BME280;52283;49.292;10.572;2023-11-19T12:31:07;96107.44;;;12.54;100.00
65614;BME280;52283;49.292;10.572;2023-11-19T12:33:36;96102.84;;;12.57;100.00
65614;BME280;52283;49.292;10.572;2023-11-19T12:36:03;96111.78;;;12.55;100.00
65614;BME280;52283;49.292;10.572;2023-11-19T12:38:31;96109.97;;;12.58;100.00
65614;BME280;52283;49.292;10.572;2023-11-19T12:41:04;96103.94;;;12.48;100.00
65614;BME280;52283;49.292;10.572;2023-11-19T12:43:31;96092.25;;;12.44;100.00
65614;BME280;52283;49.292;10.572;2023-11-19T12:45:59;96118.44;;;12.52;100.00
65614;BME280;52283;49.292;10.572;2023-11-19T12:48:26;96122.22;;;12.55;100.00
65614;BME280;52283;49.292;10.572;2023-11-19T12:50:55;96100.03;;;12.57;100.00